sensor_id;sensor_type;location;lat;lon;timestamp;P1;durP1;ratioP1;P2;durP2;ratioP2
1258;SDS011;619;51.472;6.628;2023-07-13T00:00:48;3.93;;;2.40;;
1258;SDS011;619;51.472;6.628;2023-07-13T00:03:13;6.00;;;2.17;;
1258;SDS011;619;51.472;6.628;2023-07-13T00:05:42;7.23;;;2.37;;
1258;SDS011;619;51.472;6.628;2023-07-13T00:08:07;2.50;;;1.83;;
1258;SDS011;619;51.472;6.628;2023-07-13T00:10:33;5.73;;;2.77;;
1258;SDS011;619;51.472;6.628;2023-07-13T00:13:03;4.40;;;1.73;;
1258;SDS011;619;51.472;6.628;2023-07-13T00:15:29;2.50;;;1.57;;
1258;SDS011;619;51.472;6.628;2023-07-13T00:17:56;4.43;;;2.20;;
1258;SDS011;619;51.472;6.628;2023-07-13T00:20:23;7.27;;;1.90;;
1258;SDS011;619;51.472;6.628;2023-07-13T00:22:50;5.60;;;2.40;;
1258;SDS011;619;51.472;6.628;2023-07-13T00:25:21;5.20;;;1.80;;
1258;SDS011;619;51.472;6.628;2023-07-13T00:27:49;6.73;;;2.30;;
1258;SDS011;619;51.472;6.628;2023-07-13T00:30:16;5.60;;;2.07;;
1258;SDS011;619;51.472;6.628;2023-07-13T00:32:42;6.23;;;2.00;;
1258;SDS011;619;51.472;6.628;2023-07-13T00:35:08;4.23;;;1.63;;
1258;SDS011;619;51.472;6.628;2023-07-13T00:37:34;2.43;;;1.73;;
1258;SDS011;619;51.472;6.628;2023-07-13T00:40:01;8.40;;;1.90;;
1258;SDS011;619;51.472;6.628;2023-07-13T00:42:30;4.67;;;1.80;;
1258;SDS011;619;51.472;6.628;2023-07-13T00:47:27;7.90;;;2.43;;
1258;SDS011;619;51.472;6.628;2023-07-13T00:49:57;4.53;;;2.00;;
1258;SDS011;619;51.472;6.628;2023-07-13T00:52:28;7.03;;;2.33;;
1258;SDS011;619;51.472;6.628;2023-07-13T00:54:54;4.47;;;2.13;;
1258;SDS011;619;51.472;6.628;2023-07-13T00:57:20;3.83;;;1.60;;
1258;SDS011;619;51.472;6.628;2023-07-13T00:59:50;2.50;;;1.80;;
1258;SDS011;619;51.472;6.628;2023-07-13T01:02:19;3.40;;;2.33;;
1258;SDS011;619;51.472;6.628;2023-07-13T01:04:49;8.50;;;2.00;;
1258;SDS011;619;51.472;6.628;2023-07-13T01:07:20;7.37;;;2.40;;
1258;SDS011;619;51.472;6.628;2023-07-13T01:09:46;6.20;;;1.80;;
1258;SDS011;619;51.472;6.628;2023-07-13T01:12:11;3.60;;;1.97;;
1258;SDS011;619;51.472;6.628;2023-07-13T01:14:38;3.43;;;2.20;;
1258;SDS011;619;51.472;6.628;2023-07-13T01:17:04;2.93;;;1.83;;
1258;SDS011;619;51.472;6.628;2023-07-13T01:19:35;8.83;;;2.40;;
1258;SDS011;619;51.472;6.628;2023-07-13T01:22:10;4.57;;;2.13;;
1258;SDS011;619;51.472;6.628;2023-07-13T01:24:36;5.47;;;2.27;;
1258;SDS011;619;51.472;6.628;2023-07-13T01:27:03;2.93;;;1.67;;
1258;SDS011;619;51.472;6.628;2023-07-13T01:29:34;8.50;;;2.50;;
1258;SDS011;619;51.472;6.628;2023-07-13T01:32:10;4.53;;;1.87;;
1258;SDS011;619;51.472;6.628;2023-07-13T01:34:42;3.77;;;1.67;;
1258;SDS011;619;51.472;6.628;2023-07-13T01:37:11;5.50;;;1.83;;
1258;SDS011;619;51.472;6.628;2023-07-13T01:39:38;6.03;;;2.23;;
1258;SDS011;619;51.472;6.628;2023-07-13T01:42:10;5.60;;;1.90;;
1258;SDS011;619;51.472;6.628;2023-07-13T01:44:38;5.23;;;1.83;;
1258;SDS011;619;51.472;6.628;2023-07-13T01:47:06;3.40;;;1.43;;
1258;SDS011;619;51.472;6.628;2023-07-13T01:49:34;4.57;;;2.30;;
1258;SDS011;619;51.472;6.628;2023-07-13T01:51:59;4.13;;;2.13;;
1258;SDS011;619;51.472;6.628;2023-07-13T01:54:27;5.70;;;2.37;;
1258;SDS011;619;51.472;6.628;2023-07-13T01:56:53;4.47;;;2.10;;
1258;SDS011;619;51.472;6.628;2023-07-13T01:59:18;8.50;;;1.90;;
1258;SDS011;619;51.472;6.628;2023-07-13T02:01:47;4.10;;;2.20;;
1258;SDS011;619;51.472;6.628;2023-07-13T02:04:14;6.53;;;2.20;;
1258;SDS011;619;51.472;6.628;2023-07-13T02:06:42;6.53;;;2.30;;
1258;SDS011;619;51.472;6.628;2023-07-13T02:09:08;4.50;;;2.13;;
1258;SDS011;619;51.472;6.628;2023-07-13T02:11:37;5.30;;;2.30;;
1258;SDS011;619;51.472;6.628;2023-07-13T02:14:03;6.13;;;2.47;;
1258;SDS011;619;51.472;6.628;2023-07-13T02:16:30;6.00;;;2.00;;
1258;SDS011;619;51.472;6.628;2023-07-13T02:18:56;2.83;;;1.90;;
1258;SDS011;619;51.472;6.628;2023-07-13T02:21:22;5.70;;;2.20;;
1258;SDS011;619;51.472;6.628;2023-07-13T02:23:51;3.30;;;2.23;;
1258;SDS011;619;51.472;6.628;2023-07-13T02:26:17;7.70;;;2.20;;
1258;SDS011;619;51.472;6.628;2023-07-13T02:28:45;6.60;;;2.80;;
1258;SDS011;619;51.472;6.628;2023-07-13T02:31:12;6.43;;;2.37;;
1258;SDS011;619;51.472;6.628;2023-07-13T02:33:39;6.30;;;2.50;;
1258;SDS011;619;51.472;6.628;2023-07-13T02:36:08;6.03;;;2.40;;
1258;SDS011;619;51.472;6.628;2023-07-13T02:38:36;4.10;;;2.60;;
1258;SDS011;619;51.472;6.628;2023-07-13T02:41:05;6.93;;;2.40;;
1258;SDS011;619;51.472;6.628;2023-07-13T02:43:33;6.50;;;2.60;;
1258;SDS011;619;51.472;6.628;2023-07-13T02:46:00;5.70;;;2.30;;
1258;SDS011;619;51.472;6.628;2023-07-13T02:48:34;3.60;;;2.00;;
1258;SDS011;619;51.472;6.628;2023-07-13T02:50:59;8.33;;;2.23;;
1258;SDS011;619;51.472;6.628;2023-07-13T02:53:25;7.07;;;2.33;;
1258;SDS011;619;51.472;6.628;2023-07-13T02:55:53;5.67;;;2.00;;
1258;SDS011;619;51.472;6.628;2023-07-13T02:58:19;4.97;;;2.03;;
1258;SDS011;619;51.472;6.628;2023-07-13T03:00:45;8.67;;;2.10;;
1258;SDS011;619;51.472;6.628;2023-07-13T03:03:12;9.37;;;2.70;;
1258;SDS011;619;51.472;6.628;2023-07-13T03:05:41;3.13;;;2.00;;
1258;SDS011;619;51.472;6.628;2023-07-13T03:08:09;5.53;;;2.33;;
1258;SDS011;619;51.472;6.628;2023-07-13T03:10:35;4.93;;;2.37;;
1258;SDS011;619;51.472;6.628;2023-07-13T03:13:02;3.37;;;2.00;;
1258;SDS011;619;51.472;6.628;2023-07-13T03:15:27;5.97;;;2.40;;
1258;SDS011;619;51.472;6.628;2023-07-13T03:17:55;3.70;;;2.13;;
1258;SDS011;619;51.472;6.628;2023-07-13T03:20:23;4.70;;;2.30;;
1258;SDS011;619;51.472;6.628;2023-07-13T03:22:49;3.90;;;2.00;;
1258;SDS011;619;51.472;6.628;2023-07-13T03:25:14;4.80;;;2.20;;
1258;SDS011;619;51.472;6.628;2023-07-13T03:27:40;8.00;;;2.73;;
1258;SDS011;619;51.472;6.628;2023-07-13T03:30:06;8.07;;;2.80;;
1258;SDS011;619;51.472;6.628;2023-07-13T03:32:32;5.03;;;2.70;;
1258;SDS011;619;51.472;6.628;2023-07-13T03:34:58;4.97;;;1.97;;
1258;SDS011;619;51.472;6.628;2023-07-13T03:37:23;6.17;;;2.30;;
1258;SDS011;619;51.472;6.628;2023-07-13T03:39:49;8.63;;;2.60;;
1258;SDS011;619;51.472;6.628;2023-07-13T03:42:17;12.30;;;2.60;;
1258;SDS011;619;51.472;6.628;2023-07-13T03:44:43;5.87;;;2.70;;
1258;SDS011;619;51.472;6.628;2023-07-13T03:47:17;6.10;;;2.20;;
1258;SDS011;619;51.472;6.628;2023-07-13T03:49:43;10.47;;;2.50;;
1258;SDS011;619;51.472;6.628;2023-07-13T03:52:10;4.10;;;2.20;;
1258;SDS011;619;51.472;6.628;2023-07-13T03:54:38;6.57;;;2.40;;
1258;SDS011;619;51.472;6.628;2023-07-13T03:57:08;8.63;;;3.07;;
1258;SDS011;619;51.472;6.628;2023-07-13T03:59:36;7.17;;;2.00;;
1258;SDS011;619;51.472;6.628;2023-07-13T04:02:02;5.57;;;2.17;;
1258;SDS011;619;51.472;6.628;2023-07-13T04:04:29;6.70;;;2.50;;
1258;SDS011;619;51.472;6.628;2023-07-13T04:06:55;4.13;;;2.53;;
1258;SDS011;619;51.472;6.628;2023-07-13T04:09:23;4.33;;;2.13;;
1258;SDS011;619;51.472;6.628;2023-07-13T04:11:49;3.17;;;2.10;;
1258;SDS011;619;51.472;6.628;2023-07-13T04:14:15;7.40;;;2.17;;
1258;SDS011;619;51.472;6.628;2023-07-13T04:16:43;9.00;;;2.13;;
1258;SDS011;619;51.472;6.628;2023-07-13T04:19:09;3.27;;;1.90;;
1258;SDS011;619;51.472;6.628;2023-07-13T04:21:36;4.73;;;2.40;;
1258;SDS011;619;51.472;6.628;2023-07-13T04:24:02;3.90;;;2.63;;
1258;SDS011;619;51.472;6.628;2023-07-13T04:26:28;6.20;;;2.53;;
1258;SDS011;619;51.472;6.628;2023-07-13T04:28:57;4.20;;;2.43;;
1258;SDS011;619;51.472;6.628;2023-07-13T04:31:22;8.10;;;2.60;;
1258;SDS011;619;51.472;6.628;2023-07-13T04:33:48;6.53;;;2.70;;
1258;SDS011;619;51.472;6.628;2023-07-13T04:36:16;4.73;;;2.30;;
1258;SDS011;619;51.472;6.628;2023-07-13T04:38:41;6.00;;;2.57;;
1258;SDS011;619;51.472;6.628;2023-07-13T04:41:08;6.60;;;2.50;;
1258;SDS011;619;51.472;6.628;2023-07-13T04:43:36;5.73;;;2.97;;
1258;SDS011;619;51.472;6.628;2023-07-13T04:46:10;7.90;;;2.57;;
1258;SDS011;619;51.472;6.628;2023-07-13T04:48:37;4.27;;;2.10;;
1258;SDS011;619;51.472;6.628;2023-07-13T04:51:05;3.60;;;2.10;;
1258;SDS011;619;51.472;6.628;2023-07-13T04:53:32;5.93;;;2.10;;
1258;SDS011;619;51.472;6.628;2023-07-13T04:56:00;5.97;;;2.77;;
1258;SDS011;619;51.472;6.628;2023-07-13T04:58:29;4.80;;;2.50;;
1258;SDS011;619;51.472;6.628;2023-07-13T05:01:05;8.90;;;3.00;;
1258;SDS011;619;51.472;6.628;2023-07-13T05:03:31;6.23;;;2.17;;
1258;SDS011;619;51.472;6.628;2023-07-13T05:06:01;6.63;;;2.73;;
1258;SDS011;619;51.472;6.628;2023-07-13T05:08:28;4.83;;;2.53;;
1258;SDS011;619;51.472;6.628;2023-07-13T05:10:58;3.67;;;2.00;;
1258;SDS011;619;51.472;6.628;2023-07-13T05:13:28;7.10;;;2.87;;
1258;SDS011;619;51.472;6.628;2023-07-13T05:16:12;5.20;;;3.20;;
1258;SDS011;619;51.472;6.628;2023-07-13T05:18:38;7.60;;;2.97;;
1258;SDS011;619;51.472;6.628;2023-07-13T05:21:04;5.37;;;2.90;;
1258;SDS011;619;51.472;6.628;2023-07-13T05:23:33;4.23;;;2.23;;
1258;SDS011;619;51.472;6.628;2023-07-13T05:26:01;5.33;;;2.97;;
1258;SDS011;619;51.472;6.628;2023-07-13T05:28:28;8.23;;;3.63;;
1258;SDS011;619;51.472;6.628;2023-07-13T05:30:55;10.07;;;2.70;;
1258;SDS011;619;51.472;6.628;2023-07-13T05:33:20;6.40;;;3.17;;
1258;SDS011;619;51.472;6.628;2023-07-13T05:35:46;6.47;;;2.50;;
1258;SDS011;619;51.472;6.628;2023-07-13T05:38:12;6.03;;;2.20;;
1258;SDS011;619;51.472;6.628;2023-07-13T05:40:38;8.30;;;3.00;;
1258;SDS011;619;51.472;6.628;2023-07-13T05:43:04;7.00;;;2.80;;
1258;SDS011;619;51.472;6.628;2023-07-13T05:45:34;7.90;;;3.30;;
1258;SDS011;619;51.472;6.628;2023-07-13T05:48:00;6.60;;;3.30;;
1258;SDS011;619;51.472;6.628;2023-07-13T05:50:25;8.63;;;3.03;;
1258;SDS011;619;51.472;6.628;2023-07-13T05:52:51;8.37;;;3.20;;
1258;SDS011;619;51.472;6.628;2023-07-13T05:55:17;8.40;;;3.47;;
1258;SDS011;619;51.472;6.628;2023-07-13T05:57:45;4.47;;;3.07;;
1258;SDS011;619;51.472;6.628;2023-07-13T06:00:13;6.10;;;3.67;;
1258;SDS011;619;51.472;6.628;2023-07-13T06:02:40;8.93;;;3.57;;
1258;SDS011;619;51.472;6.628;2023-07-13T06:05:08;9.97;;;3.07;;
1258;SDS011;619;51.472;6.628;2023-07-13T06:07:34;9.17;;;4.53;;
1258;SDS011;619;51.472;6.628;2023-07-13T06:10:02;7.37;;;3.20;;
1258;SDS011;619;51.472;6.628;2023-07-13T06:12:28;9.67;;;3.57;;
1258;SDS011;619;51.472;6.628;2023-07-13T06:14:56;7.57;;;4.33;;
1258;SDS011;619;51.472;6.628;2023-07-13T06:17:22;6.23;;;2.97;;
1258;SDS011;619;51.472;6.628;2023-07-13T06:19:48;5.20;;;3.30;;
1258;SDS011;619;51.472;6.628;2023-07-13T06:22:15;7.50;;;3.10;;
1258;SDS011;619;51.472;6.628;2023-07-13T06:24:41;7.57;;;4.50;;
1258;SDS011;619;51.472;6.628;2023-07-13T06:27:07;5.90;;;3.77;;
1258;SDS011;619;51.472;6.628;2023-07-13T06:29:35;8.37;;;3.53;;
1258;SDS011;619;51.472;6.628;2023-07-13T06:32:05;7.43;;;3.90;;
1258;SDS011;619;51.472;6.628;2023-07-13T06:34:36;7.10;;;3.73;;
1258;SDS011;619;51.472;6.628;2023-07-13T06:37:01;9.70;;;3.77;;
1258;SDS011;619;51.472;6.628;2023-07-13T06:39:29;12.27;;;4.07;;
1258;SDS011;619;51.472;6.628;2023-07-13T06:41:57;9.53;;;4.53;;
1258;SDS011;619;51.472;6.628;2023-07-13T06:44:23;14.67;;;4.43;;
1258;SDS011;619;51.472;6.628;2023-07-13T06:46:48;13.20;;;4.40;;
1258;SDS011;619;51.472;6.628;2023-07-13T06:49:16;8.07;;;3.83;;
1258;SDS011;619;51.472;6.628;2023-07-13T06:51:42;10.27;;;5.00;;
1258;SDS011;619;51.472;6.628;2023-07-13T06:54:07;9.50;;;4.77;;
1258;SDS011;619;51.472;6.628;2023-07-13T06:56:35;7.27;;;4.10;;
1258;SDS011;619;51.472;6.628;2023-07-13T06:59:01;7.90;;;4.23;;
1258;SDS011;619;51.472;6.628;2023-07-13T07:01:26;11.90;;;6.50;;
1258;SDS011;619;51.472;6.628;2023-07-13T07:03:54;9.43;;;5.20;;
1258;SDS011;619;51.472;6.628;2023-07-13T07:06:21;9.23;;;4.27;;
1258;SDS011;619;51.472;6.628;2023-07-13T07:08:50;9.90;;;4.70;;
1258;SDS011;619;51.472;6.628;2023-07-13T07:11:18;6.70;;;3.93;;
1258;SDS011;619;51.472;6.628;2023-07-13T07:13:49;6.80;;;3.80;;
1258;SDS011;619;51.472;6.628;2023-07-13T07:16:16;8.83;;;4.13;;
1258;SDS011;619;51.472;6.628;2023-07-13T07:18:42;14.30;;;4.63;;
1258;SDS011;619;51.472;6.628;2023-07-13T07:21:08;7.30;;;4.63;;
1258;SDS011;619;51.472;6.628;2023-07-13T07:23:36;8.03;;;4.53;;
1258;SDS011;619;51.472;6.628;2023-07-13T07:26:04;7.33;;;3.60;;
1258;SDS011;619;51.472;6.628;2023-07-13T07:28:30;9.10;;;4.20;;
1258;SDS011;619;51.472;6.628;2023-07-13T07:30:58;11.80;;;4.40;;
1258;SDS011;619;51.472;6.628;2023-07-13T07:33:26;8.03;;;4.10;;
1258;SDS011;619;51.472;6.628;2023-07-13T07:35:51;8.03;;;4.10;;
1258;SDS011;619;51.472;6.628;2023-07-13T07:38:17;8.93;;;4.03;;
1258;SDS011;619;51.472;6.628;2023-07-13T07:40:48;11.87;;;4.47;;
1258;SDS011;619;51.472;6.628;2023-07-13T07:43:13;11.13;;;4.03;;
1258;SDS011;619;51.472;6.628;2023-07-13T07:45:39;6.00;;;4.07;;
1258;SDS011;619;51.472;6.628;2023-07-13T07:48:05;6.60;;;3.60;;
1258;SDS011;619;51.472;6.628;2023-07-13T07:50:32;7.27;;;4.07;;
1258;SDS011;619;51.472;6.628;2023-07-13T07:52:58;9.23;;;4.63;;
1258;SDS011;619;51.472;6.628;2023-07-13T07:55:24;8.07;;;4.20;;
1258;SDS011;619;51.472;6.628;2023-07-13T07:57:55;10.00;;;4.87;;
1258;SDS011;619;51.472;6.628;2023-07-13T08:00:21;11.70;;;4.80;;
1258;SDS011;619;51.472;6.628;2023-07-13T08:02:50;6.50;;;4.23;;
1258;SDS011;619;51.472;6.628;2023-07-13T08:05:16;7.43;;;4.07;;
1258;SDS011;619;51.472;6.628;2023-07-13T08:07:41;10.73;;;4.63;;
1258;SDS011;619;51.472;6.628;2023-07-13T08:10:07;9.07;;;5.10;;
1258;SDS011;619;51.472;6.628;2023-07-13T08:12:34;12.37;;;4.67;;
1258;SDS011;619;51.472;6.628;2023-07-13T08:15:00;7.23;;;3.50;;
1258;SDS011;619;51.472;6.628;2023-07-13T08:17:26;7.87;;;4.27;;
1258;SDS011;619;51.472;6.628;2023-07-13T08:19:56;9.97;;;4.67;;
1258;SDS011;619;51.472;6.628;2023-07-13T08:22:24;9.87;;;4.37;;
1258;SDS011;619;51.472;6.628;2023-07-13T08:24:50;9.47;;;4.67;;
1258;SDS011;619;51.472;6.628;2023-07-13T08:27:23;7.37;;;3.97;;
1258;SDS011;619;51.472;6.628;2023-07-13T08:29:50;8.47;;;4.10;;
1258;SDS011;619;51.472;6.628;2023-07-13T08:32:19;10.93;;;4.70;;
1258;SDS011;619;51.472;6.628;2023-07-13T08:34:51;10.70;;;4.27;;
1258;SDS011;619;51.472;6.628;2023-07-13T08:37:17;8.83;;;4.60;;
1258;SDS011;619;51.472;6.628;2023-07-13T08:39:43;11.53;;;4.70;;
1258;SDS011;619;51.472;6.628;2023-07-13T08:47:21;6.73;;;3.57;;
1258;SDS011;619;51.472;6.628;2023-07-13T08:49:51;6.33;;;3.73;;
1258;SDS011;619;51.472;6.628;2023-07-13T08:52:39;6.80;;;3.37;;
1258;SDS011;619;51.472;6.628;2023-07-13T08:55:14;5.83;;;3.03;;
1258;SDS011;619;51.472;6.628;2023-07-13T08:57:42;9.10;;;3.80;;
1258;SDS011;619;51.472;6.628;2023-07-13T09:00:13;5.13;;;3.30;;
1258;SDS011;619;51.472;6.628;2023-07-13T09:05:18;4.53;;;3.27;;
1258;SDS011;619;51.472;6.628;2023-07-13T09:15:50;9.60;;;4.30;;
1258;SDS011;619;51.472;6.628;2023-07-13T09:23:43;5.87;;;3.70;;
1258;SDS011;619;51.472;6.628;2023-07-13T09:26:15;7.67;;;3.67;;
1258;SDS011;619;51.472;6.628;2023-07-13T09:28:47;6.43;;;3.53;;
1258;SDS011;619;51.472;6.628;2023-07-13T09:31:32;5.53;;;3.53;;
1258;SDS011;619;51.472;6.628;2023-07-13T09:34:03;6.53;;;3.63;;
1258;SDS011;619;51.472;6.628;2023-07-13T09:36:34;6.60;;;3.97;;
1258;SDS011;619;51.472;6.628;2023-07-13T09:44:49;5.10;;;4.10;;
1258;SDS011;619;51.472;6.628;2023-07-13T09:49:55;8.07;;;4.70;;
1258;SDS011;619;51.472;6.628;2023-07-13T09:55:26;4.83;;;3.03;;
1258;SDS011;619;51.472;6.628;2023-07-13T09:57:54;6.80;;;3.73;;
1258;SDS011;619;51.472;6.628;2023-07-13T10:00:26;5.03;;;3.73;;
1258;SDS011;619;51.472;6.628;2023-07-13T10:03:14;7.70;;;3.80;;
1258;SDS011;619;51.472;6.628;2023-07-13T10:05:44;6.07;;;3.40;;
1258;SDS011;619;51.472;6.628;2023-07-13T10:10:44;4.40;;;2.77;;
1258;SDS011;619;51.472;6.628;2023-07-13T10:13:26;5.03;;;2.63;;
1258;SDS011;619;51.472;6.628;2023-07-13T10:16:07;7.27;;;3.00;;
1258;SDS011;619;51.472;6.628;2023-07-13T10:18:59;6.10;;;3.17;;
1258;SDS011;619;51.472;6.628;2023-07-13T10:21:23;7.63;;;3.07;;
1258;SDS011;619;51.472;6.628;2023-07-13T10:23:57;6.37;;;3.30;;
1258;SDS011;619;51.472;6.628;2023-07-13T10:26:37;5.80;;;2.87;;
1258;SDS011;619;51.472;6.628;2023-07-13T10:29:11;7.87;;;3.00;;
1258;SDS011;619;51.472;6.628;2023-07-13T10:31:39;8.10;;;3.27;;
1258;SDS011;619;51.472;6.628;2023-07-13T10:34:10;6.30;;;2.77;;
1258;SDS011;619;51.472;6.628;2023-07-13T10:36:45;7.97;;;3.10;;
1258;SDS011;619;51.472;6.628;2023-07-13T10:39:24;5.33;;;3.00;;
1258;SDS011;619;51.472;6.628;2023-07-13T10:41:57;6.83;;;3.33;;
1258;SDS011;619;51.472;6.628;2023-07-13T10:44:32;4.70;;;2.80;;
1258;SDS011;619;51.472;6.628;2023-07-13T10:47:00;4.90;;;2.73;;
1258;SDS011;619;51.472;6.628;2023-07-13T10:49:29;5.57;;;2.60;;
1258;SDS011;619;51.472;6.628;2023-07-13T10:52:00;4.70;;;3.20;;
1258;SDS011;619;51.472;6.628;2023-07-13T10:59:42;5.83;;;4.20;;
1258;SDS011;619;51.472;6.628;2023-07-13T11:02:29;5.40;;;3.30;;
1258;SDS011;619;51.472;6.628;2023-07-13T11:04:57;3.80;;;2.80;;
1258;SDS011;619;51.472;6.628;2023-07-13T11:07:26;5.43;;;2.90;;
1258;SDS011;619;51.472;6.628;2023-07-13T11:09:57;7.50;;;3.80;;
1258;SDS011;619;51.472;6.628;2023-07-13T11:12:48;4.00;;;2.77;;
1258;SDS011;619;51.472;6.628;2023-07-13T11:15:27;4.33;;;3.23;;
1258;SDS011;619;51.472;6.628;2023-07-13T11:17:57;5.40;;;2.80;;
1258;SDS011;619;51.472;6.628;2023-07-13T11:25:43;5.07;;;2.63;;
1258;SDS011;619;51.472;6.628;2023-07-13T11:30:39;5.27;;;2.80;;
1258;SDS011;619;51.472;6.628;2023-07-13T11:36:15;3.27;;;2.80;;
1258;SDS011;619;51.472;6.628;2023-07-13T11:38:51;4.10;;;3.17;;
1258;SDS011;619;51.472;6.628;2023-07-13T11:41:36;5.43;;;4.03;;
1258;SDS011;619;51.472;6.628;2023-07-13T11:44:11;5.20;;;2.63;;
1258;SDS011;619;51.472;6.628;2023-07-13T11:46:38;4.37;;;2.07;;
1258;SDS011;619;51.472;6.628;2023-07-13T11:49:05;4.20;;;2.87;;
1258;SDS011;619;51.472;6.628;2023-07-13T11:51:32;5.30;;;3.77;;
1258;SDS011;619;51.472;6.628;2023-07-13T11:54:10;5.87;;;3.20;;
1258;SDS011;619;51.472;6.628;2023-07-13T11:57:06;4.67;;;2.60;;
1258;SDS011;619;51.472;6.628;2023-07-13T11:59:50;4.23;;;2.30;;
1258;SDS011;619;51.472;6.628;2023-07-13T12:02:31;5.10;;;2.73;;
1258;SDS011;619;51.472;6.628;2023-07-13T12:05:00;5.77;;;2.57;;
1258;SDS011;619;51.472;6.628;2023-07-13T12:07:29;5.03;;;2.70;;
1258;SDS011;619;51.472;6.628;2023-07-13T12:12:53;5.43;;;2.10;;
1258;SDS011;619;51.472;6.628;2023-07-13T12:15:32;5.33;;;2.07;;
1258;SDS011;619;51.472;6.628;2023-07-13T12:18:21;4.33;;;2.40;;
1258;SDS011;619;51.472;6.628;2023-07-13T12:20:55;4.93;;;2.50;;
1258;SDS011;619;51.472;6.628;2023-07-13T12:23:26;4.30;;;2.13;;
1258;SDS011;619;51.472;6.628;2023-07-13T12:25:53;6.53;;;2.73;;
1258;SDS011;619;51.472;6.628;2023-07-13T12:28:31;5.50;;;2.33;;
1258;SDS011;619;51.472;6.628;2023-07-13T12:31:03;5.17;;;2.40;;
1258;SDS011;619;51.472;6.628;2023-07-13T12:33:31;4.10;;;2.37;;
1258;SDS011;619;51.472;6.628;2023-07-13T12:36:02;2.40;;;1.50;;
1258;SDS011;619;51.472;6.628;2023-07-13T12:38:31;4.30;;;2.50;;
1258;SDS011;619;51.472;6.628;2023-07-13T12:40:57;3.30;;;2.13;;
1258;SDS011;619;51.472;6.628;2023-07-13T12:43:24;4.50;;;2.27;;
1258;SDS011;619;51.472;6.628;2023-07-13T12:45:59;4.30;;;2.67;;
1258;SDS011;619;51.472;6.628;2023-07-13T12:48:27;5.03;;;2.60;;
1258;SDS011;619;51.472;6.628;2023-07-13T12:50:56;4.77;;;2.20;;
1258;SDS011;619;51.472;6.628;2023-07-13T12:53:30;7.73;;;2.50;;
1258;SDS011;619;51.472;6.628;2023-07-13T12:56:01;4.07;;;2.23;;
1258;SDS011;619;51.472;6.628;2023-07-13T12:58:32;4.40;;;2.30;;
1258;SDS011;619;51.472;6.628;2023-07-13T13:01:02;4.40;;;2.40;;
1258;SDS011;619;51.472;6.628;2023-07-13T13:03:48;4.70;;;2.00;;
1258;SDS011;619;51.472;6.628;2023-07-13T13:06:24;4.13;;;2.03;;
1258;SDS011;619;51.472;6.628;2023-07-13T13:08:53;3.90;;;2.00;;
1258;SDS011;619;51.472;6.628;2023-07-13T13:11:26;6.73;;;2.30;;
1258;SDS011;619;51.472;6.628;2023-07-13T13:13:54;3.97;;;1.90;;
1258;SDS011;619;51.472;6.628;2023-07-13T13:16:20;4.30;;;2.80;;
1258;SDS011;619;51.472;6.628;2023-07-13T13:18:48;4.20;;;2.40;;
1258;SDS011;619;51.472;6.628;2023-07-13T13:21:16;4.60;;;2.53;;
1258;SDS011;619;51.472;6.628;2023-07-13T13:23:42;5.00;;;3.03;;
1258;SDS011;619;51.472;6.628;2023-07-13T13:26:10;5.60;;;2.67;;
1258;SDS011;619;51.472;6.628;2023-07-13T13:28:43;3.97;;;2.50;;
1258;SDS011;619;51.472;6.628;2023-07-13T13:31:09;5.03;;;2.53;;
1258;SDS011;619;51.472;6.628;2023-07-13T13:33:43;3.47;;;2.53;;
1258;SDS011;619;51.472;6.628;2023-07-13T13:36:14;6.60;;;2.30;;
1258;SDS011;619;51.472;6.628;2023-07-13T13:38:50;7.27;;;2.77;;
1258;SDS011;619;51.472;6.628;2023-07-13T13:41:16;6.60;;;3.07;;
1258;SDS011;619;51.472;6.628;2023-07-13T13:43:42;4.03;;;2.60;;
1258;SDS011;619;51.472;6.628;2023-07-13T13:46:13;6.33;;;3.27;;
1258;SDS011;619;51.472;6.628;2023-07-13T13:48:46;9.20;;;3.10;;
1258;SDS011;619;51.472;6.628;2023-07-13T13:51:16;6.10;;;3.33;;
1258;SDS011;619;51.472;6.628;2023-07-13T13:53:46;6.13;;;3.37;;
1258;SDS011;619;51.472;6.628;2023-07-13T13:56:13;4.47;;;3.40;;
1258;SDS011;619;51.472;6.628;2023-07-13T13:58:42;5.77;;;2.60;;
1258;SDS011;619;51.472;6.628;2023-07-13T14:01:12;4.43;;;2.70;;
1258;SDS011;619;51.472;6.628;2023-07-13T14:03:42;5.23;;;3.17;;
1258;SDS011;619;51.472;6.628;2023-07-13T14:06:12;4.60;;;3.10;;
1258;SDS011;619;51.472;6.628;2023-07-13T14:08:39;6.20;;;3.03;;
1258;SDS011;619;51.472;6.628;2023-07-13T14:11:07;4.43;;;2.80;;
1258;SDS011;619;51.472;6.628;2023-07-13T14:13:38;3.63;;;2.67;;
1258;SDS011;619;51.472;6.628;2023-07-13T14:16:12;4.80;;;3.20;;
1258;SDS011;619;51.472;6.628;2023-07-13T14:18:42;4.20;;;3.10;;
1258;SDS011;619;51.472;6.628;2023-07-13T14:21:16;4.87;;;2.63;;
1258;SDS011;619;51.472;6.628;2023-07-13T14:23:43;6.90;;;3.47;;
1258;SDS011;619;51.472;6.628;2023-07-13T14:26:14;6.80;;;3.57;;
1258;SDS011;619;51.472;6.628;2023-07-13T14:28:42;7.13;;;3.23;;
1258;SDS011;619;51.472;6.628;2023-07-13T14:31:10;3.23;;;2.50;;
1258;SDS011;619;51.472;6.628;2023-07-13T14:33:40;5.50;;;3.40;;
1258;SDS011;619;51.472;6.628;2023-07-13T14:36:28;5.20;;;3.33;;
1258;SDS011;619;51.472;6.628;2023-07-13T14:38:51;8.40;;;6.10;;
1258;SDS011;619;51.472;6.628;2023-07-13T14:41:22;4.00;;;3.07;;
1258;SDS011;619;51.472;6.628;2023-07-13T14:43:48;5.60;;;3.07;;
1258;SDS011;619;51.472;6.628;2023-07-13T14:46:23;4.50;;;2.40;;
1258;SDS011;619;51.472;6.628;2023-07-13T14:48:59;5.47;;;3.03;;
1258;SDS011;619;51.472;6.628;2023-07-13T14:51:30;3.70;;;2.73;;
1258;SDS011;619;51.472;6.628;2023-07-13T14:54:00;4.23;;;2.60;;
1258;SDS011;619;51.472;6.628;2023-07-13T14:56:29;4.03;;;2.80;;
1258;SDS011;619;51.472;6.628;2023-07-13T14:58:55;6.90;;;3.20;;
1258;SDS011;619;51.472;6.628;2023-07-13T15:01:21;8.10;;;3.70;;
1258;SDS011;619;51.472;6.628;2023-07-13T15:03:47;7.43;;;3.70;;
1258;SDS011;619;51.472;6.628;2023-07-13T15:06:19;6.10;;;3.67;;
1258;SDS011;619;51.472;6.628;2023-07-13T15:08:45;12.17;;;4.53;;
1258;SDS011;619;51.472;6.628;2023-07-13T15:11:14;6.30;;;3.77;;
1258;SDS011;619;51.472;6.628;2023-07-13T15:13:40;6.00;;;3.50;;
1258;SDS011;619;51.472;6.628;2023-07-13T15:16:13;7.90;;;3.70;;
1258;SDS011;619;51.472;6.628;2023-07-13T15:18:46;4.03;;;3.60;;
1258;SDS011;619;51.472;6.628;2023-07-13T15:21:13;6.83;;;3.50;;
1258;SDS011;619;51.472;6.628;2023-07-13T15:23:44;5.17;;;3.40;;
1258;SDS011;619;51.472;6.628;2023-07-13T15:26:13;3.70;;;3.30;;
1258;SDS011;619;51.472;6.628;2023-07-13T15:28:43;5.70;;;3.43;;
1258;SDS011;619;51.472;6.628;2023-07-13T15:33:49;4.80;;;3.03;;
1258;SDS011;619;51.472;6.628;2023-07-13T15:36:17;5.90;;;2.87;;
1258;SDS011;619;51.472;6.628;2023-07-13T15:38:46;4.87;;;3.00;;
1258;SDS011;619;51.472;6.628;2023-07-13T15:41:19;2.90;;;2.63;;
1258;SDS011;619;51.472;6.628;2023-07-13T15:43:49;4.80;;;2.67;;
1258;SDS011;619;51.472;6.628;2023-07-13T15:46:20;3.70;;;3.40;;
1258;SDS011;619;51.472;6.628;2023-07-13T15:48:50;6.83;;;4.30;;
1258;SDS011;619;51.472;6.628;2023-07-13T15:53:52;3.77;;;2.80;;
1258;SDS011;619;51.472;6.628;2023-07-13T15:58:50;4.20;;;2.73;;
1258;SDS011;619;51.472;6.628;2023-07-13T16:01:17;3.30;;;3.00;;
1258;SDS011;619;51.472;6.628;2023-07-13T16:03:46;3.80;;;3.30;;
1258;SDS011;619;51.472;6.628;2023-07-13T16:06:13;3.30;;;3.00;;
1258;SDS011;619;51.472;6.628;2023-07-13T16:08:40;6.00;;;3.87;;
1258;SDS011;619;51.472;6.628;2023-07-13T16:11:08;4.67;;;3.40;;
1258;SDS011;619;51.472;6.628;2023-07-13T16:13:44;5.33;;;4.40;;
1258;SDS011;619;51.472;6.628;2023-07-13T16:16:16;4.20;;;3.80;;
1258;SDS011;619;51.472;6.628;2023-07-13T16:18:43;7.20;;;3.40;;
1258;SDS011;619;51.472;6.628;2023-07-13T16:21:13;7.23;;;6.53;;
1258;SDS011;619;51.472;6.628;2023-07-13T16:23:43;4.17;;;3.77;;
1258;SDS011;619;51.472;6.628;2023-07-13T16:26:19;4.40;;;3.33;;
1258;SDS011;619;51.472;6.628;2023-07-13T16:29:04;10.00;;;3.60;;
1258;SDS011;619;51.472;6.628;2023-07-13T16:31:42;4.33;;;3.50;;
1258;SDS011;619;51.472;6.628;2023-07-13T16:34:26;3.30;;;3.00;;
1258;SDS011;619;51.472;6.628;2023-07-13T16:36:52;3.63;;;3.00;;
1258;SDS011;619;51.472;6.628;2023-07-13T16:39:19;9.03;;;7.37;;
1258;SDS011;619;51.472;6.628;2023-07-13T16:41:44;9.57;;;6.80;;
1258;SDS011;619;51.472;6.628;2023-07-13T16:44:13;8.73;;;4.63;;
1258;SDS011;619;51.472;6.628;2023-07-13T16:46:45;4.10;;;3.70;;